Terminal Aerodrome Forecast
Issued by NWS

Home | Current Version | Previous Version | Text Only | Print | Product List | Glossary On
Versions: 1 2 3 4 5 6 7 8 9 10 11 12 13 14 15 16 17 18
355
FTUS41 KCAR 260658 AAA
TAFPQI
TAF AMD
KPQI 260658Z 2607/2706 14009KT 6SM -RA BR OVC009
     FM261400 15006KT 3SM -RA BR OVC005
     FM262000 15006KT P6SM VCSH OVC003=

USA.gov is the U.S. government's official web portal to all federal, state and local government web resources and services.